createdAt,value
2018-09-11T00:00:35.100Z,101599.48
2018-09-11T00:03:04.124Z,101586.70
2018-09-11T00:05:33.878Z,101579.89
2018-09-11T00:08:03.520Z,101577.16
2018-09-11T00:10:32.671Z,101575.55
2018-09-11T00:13:01.816Z,101566.55
2018-09-11T00:15:30.935Z,101564.63
2018-09-11T00:17:59.993Z,101571.72
2018-09-11T00:20:28.979Z,101563.56
2018-09-11T00:22:57.969Z,101558.64
2018-09-11T00:25:26.961Z,101555.92
2018-09-11T00:27:55.935Z,101557.27
2018-09-11T00:30:25.054Z,101549.95
2018-09-11T00:32:54.055Z,101530.08
2018-09-11T00:35:23.164Z,101524.89
2018-09-11T00:37:52.117Z,101520.54
2018-09-11T00:40:21.082Z,101524.63
2018-09-11T00:42:50.107Z,101526.52
2018-09-11T00:45:19.142Z,101532.25
2018-09-11T00:47:48.131Z,101531.97
2018-09-11T00:50:17.142Z,101524.63
2018-09-11T00:52:46.226Z,101522.73
2018-09-11T00:55:15.193Z,101515.11
2018-09-11T00:57:44.366Z,101527.08
2018-09-11T01:00:13.349Z,101523.00
2018-09-11T01:02:42.936Z,101519.72
2018-09-11T01:05:11.955Z,101520.28
2018-09-11T01:07:41.493Z,101515.94
2018-09-11T01:10:10.994Z,101517.30
2018-09-11T01:12:42.931Z,101523.80
2018-09-11T01:15:11.898Z,101514.27
2018-09-11T01:17:40.923Z,101511.28
2018-09-11T01:20:10.236Z,101511.55
2018-09-11T01:22:39.487Z,101517.30
2018-09-11T01:25:08.668Z,101521.37
2018-09-11T01:27:37.788Z,101523.80
2018-09-11T01:30:06.995Z,101530.91
2018-09-11T01:32:36.067Z,101530.06
2018-09-11T01:35:05.076Z,101526.23
2018-09-11T01:37:34.239Z,101525.44
2018-09-11T01:40:03.189Z,101524.90
2018-09-11T01:42:32.309Z,101516.43
2018-09-11T01:45:01.517Z,101515.37
2018-09-11T01:47:30.566Z,101511.84
2018-09-11T01:49:59.692Z,101510.72
2018-09-11T01:52:28.708Z,101503.92
2018-09-11T01:54:57.860Z,101505.80
2018-09-11T01:57:26.934Z,101501.75
2018-09-11T01:59:56.082Z,101499.27
2018-09-11T02:02:25.101Z,101505.30
2018-09-11T02:04:54.666Z,101505.29
2018-09-11T02:07:23.683Z,101506.64
2018-09-11T02:09:52.592Z,101509.91
2018-09-11T02:12:21.612Z,101510.98
2018-09-11T02:14:50.578Z,101507.44
2018-09-11T02:17:19.585Z,101508.55
2018-09-11T02:19:48.611Z,101504.98
2018-09-11T02:22:17.561Z,101506.93
2018-09-11T02:24:46.590Z,101514.00
2018-09-11T02:27:15.549Z,101506.36
2018-09-11T02:29:44.508Z,101504.73
2018-09-11T02:32:13.533Z,101503.95
2018-09-11T02:34:42.631Z,101502.27
2018-09-11T02:37:11.774Z,101499.27
2018-09-11T02:39:40.714Z,101502.02
2018-09-11T02:42:09.693Z,101498.20
2018-09-11T02:44:38.706Z,101499.02
2018-09-11T02:47:07.854Z,101501.50
2018-09-11T02:49:37.002Z,101495.78
2018-09-11T02:52:06.358Z,101496.58
2018-09-11T02:54:35.450Z,101491.14
2018-09-11T02:57:04.747Z,101496.31
2018-09-11T02:59:33.878Z,101503.12
2018-09-11T03:02:02.911Z,101504.74
2018-09-11T03:04:32.011Z,101501.77
2018-09-11T03:07:01.143Z,101510.48
2018-09-11T03:09:30.273Z,101507.20
2018-09-11T03:11:59.547Z,101510.48
2018-09-11T03:14:28.534Z,101514.81
2018-09-11T03:16:57.573Z,101508.00
2018-09-11T03:19:26.710Z,101512.12
2018-09-11T03:21:55.760Z,101506.93
2018-09-11T03:24:24.701Z,101501.75
2018-09-11T03:26:53.670Z,101504.22
2018-09-11T03:29:22.640Z,101505.27
2018-09-11T03:31:51.784Z,101500.38
2018-09-11T03:34:20.855Z,101490.33
2018-09-11T03:36:50.099Z,101492.73
2018-09-11T03:39:19.202Z,101485.42
2018-09-11T03:41:48.165Z,101479.16
2018-09-11T03:44:17.166Z,101470.73
2018-09-11T03:46:46.099Z,101465.84
2018-09-11T03:49:15.174Z,101461.22
2018-09-11T03:51:44.184Z,101460.95
2018-09-11T03:54:13.150Z,101458.50
2018-09-11T03:56:42.155Z,101450.91
2018-09-11T03:59:11.274Z,101453.61
2018-09-11T04:01:40.251Z,101447.08
2018-09-11T04:04:09.245Z,101447.09
2018-09-11T04:06:38.255Z,101447.34
2018-09-11T04:09:09.965Z,101441.91
2018-09-11T04:11:39.015Z,101443.75
2018-09-11T04:14:07.968Z,101444.58
2018-09-11T04:16:37.162Z,101438.31
2018-09-11T04:19:06.171Z,101445.45
2018-09-11T04:21:35.152Z,101447.84
2018-09-11T04:24:04.248Z,101448.92
2018-09-11T04:26:33.214Z,101450.28
2018-09-11T04:29:02.351Z,101447.34
2018-09-11T04:31:31.301Z,101453.30
2018-09-11T04:34:00.294Z,101452.99
2018-09-11T04:36:29.379Z,101456.27
2018-09-11T04:38:58.264Z,101453.25
2018-09-11T04:41:27.235Z,101457.69
2018-09-11T04:43:56.193Z,101457.90
2018-09-11T04:46:25.166Z,101460.89
2018-09-11T04:48:54.148Z,101454.63
2018-09-11T04:51:23.148Z,101454.92
2018-09-11T04:53:52.091Z,101450.00
2018-09-11T04:56:21.064Z,101446.81
2018-09-11T04:58:50.425Z,101449.48
2018-09-11T05:01:19.379Z,101446.52
2018-09-11T05:03:48.461Z,101443.48
2018-09-11T05:06:17.451Z,101441.86
2018-09-11T05:08:46.400Z,101434.78
2018-09-11T05:11:15.378Z,101438.30
2018-09-11T05:13:44.413Z,101435.89
2018-09-11T05:16:13.433Z,101437.50
2018-09-11T05:18:42.402Z,101437.76
2018-09-11T05:21:11.563Z,101442.33
2018-09-11T05:23:40.487Z,101446.16
2018-09-11T05:26:09.491Z,101444.84
2018-09-11T05:28:38.451Z,101441.00
2018-09-11T05:31:07.440Z,101445.91
2018-09-11T05:33:36.491Z,101435.83
2018-09-11T05:36:05.474Z,101438.03
2018-09-11T05:38:34.423Z,101432.06
2018-09-11T05:41:03.368Z,101430.13
2018-09-11T05:43:32.295Z,101433.41
2018-09-11T05:46:01.557Z,101430.46
2018-09-11T05:48:30.693Z,101423.36
2018-09-11T05:50:59.675Z,101423.08
2018-09-11T05:53:28.643Z,101419.84
2018-09-11T05:55:57.597Z,101416.79
2018-09-11T05:58:26.644Z,101409.20
2018-09-11T06:00:55.559Z,101398.10
2018-09-11T06:03:24.620Z,101395.64
2018-09-11T06:05:53.582Z,101396.47
2018-09-11T06:08:22.568Z,101398.94
2018-09-11T06:10:51.512Z,101395.38
2018-09-11T06:13:20.533Z,101396.52
2018-09-11T06:15:49.586Z,101403.02
2018-09-11T06:18:18.648Z,101402.44
2018-09-11T06:20:47.635Z,101401.09
2018-09-11T06:23:16.650Z,101409.55
2018-09-11T06:25:45.670Z,101411.69
2018-09-11T06:28:14.779Z,101421.52
2018-09-11T06:30:43.765Z,101421.25
2018-09-11T06:33:12.693Z,101421.25
2018-09-11T06:35:42.075Z,101420.16
2018-09-11T06:38:11.020Z,101428.05
2018-09-11T06:40:40.019Z,101437.30
2018-09-11T06:43:09.055Z,101444.11
2018-09-11T06:45:38.006Z,101436.20
2018-09-11T06:48:07.005Z,101433.22
2018-09-11T06:50:35.991Z,101432.66
2018-09-11T06:53:05.012Z,101428.01
2018-09-11T06:55:34.027Z,101428.27
2018-09-11T06:58:03.030Z,101417.44
2018-09-11T07:00:32.149Z,101407.09
2018-09-11T07:03:01.102Z,101409.02
2018-09-11T07:05:30.183Z,101414.19
2018-09-11T07:07:59.152Z,101407.66
2018-09-11T07:10:28.121Z,101412.27
2018-09-11T07:12:57.072Z,101404.67
2018-09-11T07:15:26.516Z,101400.03
2018-09-11T07:17:55.534Z,101392.17
2018-09-11T07:20:24.773Z,101378.83
2018-09-11T07:22:53.817Z,101376.61
2018-09-11T07:25:23.318Z,101371.72
2018-09-11T07:27:52.320Z,101369.53
2018-09-11T07:30:21.348Z,101364.92
2018-09-11T07:32:50.299Z,101360.84
2018-09-11T07:35:19.236Z,101351.61
2018-09-11T07:37:48.257Z,101353.75
2018-09-11T07:40:17.304Z,101359.75
2018-09-11T07:42:46.293Z,101354.30
2018-09-11T07:45:15.275Z,101360.83
2018-09-11T07:47:44.288Z,101377.44
2018-09-11T07:50:13.337Z,101375.19
2018-09-11T07:52:42.374Z,101372.78
2018-09-11T07:55:11.284Z,101370.31
2018-09-11T07:57:40.308Z,101368.98
2018-09-11T08:00:09.248Z,101362.13
2018-09-11T08:02:38.244Z,101377.92
2018-09-11T08:05:07.909Z,101373.56
2018-09-11T08:07:37.720Z,101380.64
2018-09-11T08:10:06.740Z,101395.08
2018-09-11T08:12:35.709Z,101392.63
2018-09-11T08:15:04.831Z,101403.77
2018-09-11T08:17:33.893Z,101393.45
2018-09-11T08:20:02.954Z,101389.34
2018-09-11T08:22:31.921Z,101403.21
2018-09-11T08:25:00.918Z,101390.94
2018-09-11T08:27:29.917Z,101396.94
2018-09-11T08:29:58.984Z,101399.06
2018-09-11T08:32:27.966Z,101394.22
2018-09-11T08:34:56.942Z,101385.49
2018-09-11T08:37:25.906Z,101395.24
2018-09-11T08:39:55.023Z,101382.19
2018-09-11T08:42:23.963Z,101372.59
2018-09-11T08:44:52.967Z,101382.13
2018-09-11T08:47:21.949Z,101382.39
2018-09-11T08:49:50.922Z,101397.35
2018-09-11T08:52:19.869Z,101396.19
2018-09-11T08:54:49.223Z,101386.67
2018-09-11T08:57:18.182Z,101383.41
2018-09-11T08:59:47.130Z,101370.88
2018-09-11T09:02:16.095Z,101374.22
2018-09-11T09:04:45.119Z,101375.52
2018-09-11T09:07:14.067Z,101387.86
2018-09-11T09:09:43.418Z,101383.47
2018-09-11T09:12:12.401Z,101379.89
2018-09-11T09:14:41.380Z,101354.23
2018-09-11T09:17:10.354Z,101351.97
2018-09-11T09:19:39.341Z,101359.14
2018-09-11T09:22:08.271Z,101369.80
2018-09-11T09:24:37.281Z,101370.41
2018-09-11T09:27:06.239Z,101375.39
2018-09-11T09:29:35.400Z,101379.84
2018-09-11T09:32:04.360Z,101378.28
2018-09-11T09:34:33.373Z,101389.98
2018-09-11T09:37:02.446Z,101369.09
2018-09-11T09:39:31.288Z,101355.01
2018-09-11T09:42:00.323Z,101355.28
2018-09-11T09:44:29.265Z,101343.01
2018-09-11T09:46:58.236Z,101343.06
2018-09-11T09:49:27.190Z,101339.97
2018-09-11T09:51:56.141Z,101325.60
2018-09-11T09:54:25.166Z,101328.72
2018-09-11T09:56:54.171Z,101324.43
2018-09-11T09:59:23.139Z,101325.64
2018-09-11T10:01:57.373Z,101318.86
2018-09-11T10:04:26.371Z,101313.73
2018-09-11T10:06:55.306Z,101315.34
2018-09-11T10:09:24.281Z,101316.92
2018-09-11T10:11:53.299Z,101321.63
2018-09-11T10:14:22.211Z,101324.36
2018-09-11T10:16:51.162Z,101320.37
2018-09-11T10:19:20.335Z,101318.55
2018-09-11T10:21:49.382Z,101318.17
2018-09-11T10:24:18.306Z,101327.28
2018-09-11T10:26:47.315Z,101326.81
2018-09-11T10:29:16.446Z,101327.41
2018-09-11T10:31:45.580Z,101326.92
2018-09-11T10:34:14.691Z,101336.85
2018-09-11T10:36:43.646Z,101331.70
2018-09-11T10:39:12.615Z,101332.64
2018-09-11T10:41:41.490Z,101333.02
2018-09-11T10:44:10.555Z,101337.38
2018-09-11T10:46:39.528Z,101321.31
2018-09-11T10:49:08.669Z,101325.11
2018-09-11T10:51:37.907Z,101325.99
2018-09-11T10:54:06.863Z,101331.87
2018-09-11T10:56:35.970Z,101342.91
2018-09-11T10:59:05.117Z,101329.52
2018-09-11T11:01:34.089Z,101336.20
2018-09-11T11:04:03.050Z,101328.15
2018-09-11T11:06:32.040Z,101313.02
2018-09-11T11:09:01.346Z,101323.47
2018-09-11T11:11:30.356Z,101323.90
2018-09-11T11:13:59.517Z,101327.37
2018-09-11T11:16:28.530Z,101315.50
2018-09-11T11:18:57.472Z,101314.67
2018-09-11T11:21:26.397Z,101308.46
2018-09-11T11:23:55.358Z,101311.00
2018-09-11T11:26:24.431Z,101296.53
2018-09-11T11:28:53.427Z,101291.64
2018-09-11T11:31:22.450Z,101294.98
2018-09-11T11:33:51.395Z,101298.89
2018-09-11T11:36:20.547Z,101309.50
2018-09-11T11:38:49.512Z,101298.70
2018-09-11T11:41:19.182Z,101305.30
2018-09-11T11:43:48.191Z,101304.36
2018-09-11T11:46:17.209Z,101298.83
2018-09-11T11:48:46.305Z,101292.56
2018-09-11T11:51:15.711Z,101297.64
2018-09-11T11:53:44.740Z,101293.28
2018-09-11T11:56:13.700Z,101284.72
2018-09-11T11:58:42.704Z,101277.95
2018-09-11T12:01:11.668Z,101272.53
2018-09-11T12:03:40.664Z,101276.47
2018-09-11T12:06:09.620Z,101270.45
2018-09-11T12:08:38.654Z,101281.94
2018-09-11T12:11:07.588Z,101270.42
2018-09-11T12:13:36.540Z,101285.42
2018-09-11T12:16:05.545Z,101283.02
2018-09-11T12:18:34.549Z,101270.56
2018-09-11T12:21:03.500Z,101268.70
2018-09-11T12:23:32.686Z,101276.69
2018-09-11T12:26:01.704Z,101273.43
2018-09-11T12:28:30.650Z,101278.41
2018-09-11T12:31:00.445Z,101283.27
2018-09-11T12:33:29.408Z,101269.20
2018-09-11T12:35:58.369Z,101261.84
2018-09-11T12:38:27.397Z,101266.79
2018-09-11T12:40:56.333Z,101263.02
2018-09-11T12:43:25.312Z,101266.64
2018-09-11T12:45:54.325Z,101263.32
2018-09-11T12:48:23.656Z,101267.63
2018-09-11T12:50:52.298Z,101277.35
2018-09-11T12:53:21.372Z,101281.67
2018-09-11T12:55:50.367Z,101273.72
2018-09-11T12:58:19.484Z,101279.86
2018-09-11T13:00:48.529Z,101264.64
2018-09-11T13:03:17.521Z,101258.62
2018-09-11T13:05:46.503Z,101256.90
2018-09-11T13:08:15.515Z,101253.64
2018-09-11T13:10:44.534Z,101253.30
2018-09-11T13:13:13.864Z,101256.05
2018-09-11T13:15:42.816Z,101247.81
2018-09-11T13:18:11.862Z,101249.11
2018-09-11T13:20:40.831Z,101239.83
2018-09-11T13:23:09.814Z,101248.28
2018-09-11T13:25:38.797Z,101235.77
2018-09-11T13:28:07.741Z,101238.86
2018-09-11T13:30:36.734Z,101242.84
2018-09-11T13:33:06.278Z,101248.13
2018-09-11T13:35:35.208Z,101245.62
2018-09-11T13:38:04.174Z,101256.73
2018-09-11T13:40:33.220Z,101255.16
2018-09-11T13:43:02.162Z,101257.91
2018-09-11T13:45:31.135Z,101257.52
2018-09-11T13:48:00.077Z,101252.99
2018-09-11T13:50:29.057Z,101247.81
2018-09-11T13:52:58.057Z,101244.92
2018-09-11T13:55:27.128Z,101256.21
2018-09-11T13:57:56.241Z,101262.77
2018-09-11T14:00:25.178Z,101254.88
2018-09-11T14:02:54.332Z,101256.42
2018-09-11T14:05:23.236Z,101249.94
2018-09-11T14:07:52.213Z,101252.69
2018-09-11T14:10:21.571Z,101239.06
2018-09-11T14:12:50.524Z,101245.52
2018-09-11T14:15:19.539Z,101242.91
2018-09-11T14:17:48.837Z,101250.77
2018-09-11T14:20:17.840Z,101247.09
2018-09-11T14:22:50.097Z,101238.43
2018-09-11T14:25:29.018Z,101238.80
2018-09-11T14:27:57.959Z,101239.38
2018-09-11T14:30:26.929Z,101244.15
2018-09-11T14:32:55.928Z,101250.36
2018-09-11T14:35:24.922Z,101238.90
2018-09-11T14:37:54.071Z,101231.28
2018-09-11T14:40:22.979Z,101237.50
2018-09-11T14:42:51.964Z,101244.77
2018-09-11T14:45:20.962Z,101244.24
2018-09-11T14:47:49.916Z,101252.33
2018-09-11T14:50:18.849Z,101249.92
2018-09-11T14:52:47.856Z,101245.11
2018-09-11T14:55:16.886Z,101243.81
2018-09-11T14:57:46.069Z,101264.77
2018-09-11T15:00:15.033Z,101262.02
2018-09-11T15:02:44.008Z,101261.25
2018-09-11T15:05:13.093Z,101259.12
2018-09-11T15:07:42.014Z,101263.91
2018-09-11T15:10:11.379Z,101265.89
2018-09-11T15:12:40.322Z,101265.41
2018-09-11T15:15:09.301Z,101254.78
2018-09-11T15:17:38.257Z,101263.29
2018-09-11T15:20:07.785Z,101255.63
2018-09-11T15:22:36.867Z,101257.52
2018-09-11T15:25:05.768Z,101255.22
2018-09-11T15:27:34.811Z,101261.22
2018-09-11T15:30:03.997Z,101249.05
2018-09-11T15:32:32.854Z,101269.12
2018-09-11T15:35:02.156Z,101276.39
2018-09-11T15:37:31.200Z,101279.97
2018-09-11T15:40:00.188Z,101288.62
2018-09-11T15:42:29.250Z,101282.78
2018-09-11T15:44:58.533Z,101287.09
2018-09-11T15:47:27.481Z,101284.41
2018-09-11T15:49:56.424Z,101269.73
2018-09-11T15:52:25.418Z,101275.59
2018-09-11T15:54:54.421Z,101275.80
2018-09-11T15:57:27.170Z,101278.92
2018-09-11T15:59:56.404Z,101273.80
2018-09-11T16:02:25.349Z,101275.73
2018-09-11T16:04:54.330Z,101275.00
2018-09-11T16:07:23.382Z,101279.53
2018-09-11T16:09:52.390Z,101282.52
2018-09-11T16:12:21.543Z,101281.22
2018-09-11T16:14:50.800Z,101279.47
2018-09-11T16:17:19.755Z,101287.35
2018-09-11T16:19:48.798Z,101279.84
2018-09-11T16:22:17.785Z,101278.48
2018-09-11T16:24:46.783Z,101273.61
2018-09-11T16:27:15.730Z,101270.80
2018-09-11T16:29:44.814Z,101271.75
2018-09-11T16:32:13.797Z,101274.09
2018-09-11T16:34:42.761Z,101270.69
2018-09-11T16:37:11.728Z,101265.69
2018-09-11T16:39:40.786Z,101270.69
2018-09-11T16:42:09.759Z,101265.50
2018-09-11T16:44:38.738Z,101268.56
2018-09-11T16:47:07.856Z,101271.55
2018-09-11T16:49:37.171Z,101277.50
2018-09-11T16:52:06.391Z,101271.50
2018-09-11T16:54:35.374Z,101281.86
2018-09-11T16:57:04.394Z,101278.60
2018-09-11T16:59:33.419Z,101270.70
2018-09-11T17:02:02.470Z,101275.30
2018-09-11T17:04:31.452Z,101281.17
2018-09-11T17:07:00.447Z,101279.05
2018-09-11T17:09:29.469Z,101303.98
2018-09-11T17:11:59.457Z,101289.14
2018-09-11T17:14:28.521Z,101291.39
2018-09-11T17:16:57.554Z,101304.50
2018-09-11T17:19:26.558Z,101294.14
2018-09-11T17:21:55.970Z,101298.80
2018-09-11T17:24:25.060Z,101294.10
2018-09-11T17:26:54.072Z,101288.89
2018-09-11T17:29:23.061Z,101296.36
2018-09-11T17:31:52.075Z,101288.50
2018-09-11T17:34:21.092Z,101294.72
2018-09-11T17:36:50.460Z,101292.61
2018-09-11T17:39:19.398Z,101290.30
2018-09-11T17:41:48.418Z,101293.34
2018-09-11T17:44:17.448Z,101304.37
2018-09-11T17:46:46.440Z,101307.70
2018-09-11T17:49:15.539Z,101313.60
2018-09-11T17:51:44.496Z,101309.23
2018-09-11T17:54:13.518Z,101319.86
2018-09-11T17:56:42.556Z,101319.91
2018-09-11T17:59:11.578Z,101325.13
2018-09-11T18:01:40.601Z,101319.19
2018-09-11T18:04:09.622Z,101327.12
2018-09-11T18:06:38.621Z,101327.53
2018-09-11T18:09:08.372Z,101329.01
2018-09-11T18:11:37.407Z,101333.13
2018-09-11T18:14:06.497Z,101331.66
2018-09-11T18:16:35.512Z,101339.34
2018-09-11T18:19:04.555Z,101342.74
2018-09-11T18:21:33.555Z,101346.00
2018-09-11T18:24:02.659Z,101351.81
2018-09-11T18:26:31.755Z,101352.88
2018-09-11T18:29:00.728Z,101352.25
2018-09-11T18:31:29.774Z,101360.12
2018-09-11T18:33:58.772Z,101358.99
2018-09-11T18:36:28.563Z,101364.70
2018-09-11T18:38:57.576Z,101361.52
2018-09-11T18:41:26.602Z,101370.89
2018-09-11T18:43:55.758Z,101379.61
2018-09-11T18:46:24.722Z,101369.23
2018-09-11T18:48:54.061Z,101373.53
2018-09-11T18:51:23.116Z,101370.11
2018-09-11T18:53:52.082Z,101374.29
2018-09-11T18:56:21.334Z,101383.17
2018-09-11T18:58:50.317Z,101384.82
2018-09-11T19:01:19.311Z,101389.42
2018-09-11T19:03:48.343Z,101390.23
2018-09-11T19:06:17.426Z,101387.95
2018-09-11T19:08:46.487Z,101396.80
2018-09-11T19:11:15.808Z,101400.23
2018-09-11T19:13:44.841Z,101392.77
2018-09-11T19:16:13.861Z,101399.83
2018-09-11T19:18:43.101Z,101394.36
2018-09-11T19:21:12.125Z,101390.12
2018-09-11T19:23:41.137Z,101395.50
2018-09-11T19:26:10.216Z,101394.55
2018-09-11T19:28:39.311Z,101399.56
2018-09-11T19:31:08.338Z,101397.39
2018-09-11T19:33:37.278Z,101395.55
2018-09-11T19:36:06.359Z,101396.72
2018-09-11T19:38:35.749Z,101407.52
2018-09-11T19:41:04.749Z,101404.23
2018-09-11T19:43:33.761Z,101405.33
2018-09-11T19:46:02.687Z,101409.03
2018-09-11T19:48:31.707Z,101407.84
2018-09-11T19:51:01.626Z,101405.38
2018-09-11T19:53:30.901Z,101397.49
2018-09-11T19:55:59.971Z,101396.70
2018-09-11T19:58:29.048Z,101394.08
2018-09-11T20:00:58.061Z,101395.47
2018-09-11T20:03:27.071Z,101399.35
2018-09-11T20:05:56.052Z,101408.50
2018-09-11T20:08:25.061Z,101402.39
2018-09-11T20:10:54.200Z,101396.16
2018-09-11T20:13:23.225Z,101400.81
2018-09-11T20:15:52.274Z,101396.02
2018-09-11T20:18:21.304Z,101402.59
2018-09-11T20:20:50.315Z,101396.09
2018-09-11T20:23:19.316Z,101393.86
2018-09-11T20:25:48.373Z,101388.28
2018-09-11T20:28:17.348Z,101387.80
2018-09-11T20:30:46.356Z,101385.50
2018-09-11T20:33:15.442Z,101383.22
2018-09-11T20:35:44.438Z,101382.80
2018-09-11T20:38:13.434Z,101378.24
2018-09-11T20:40:42.493Z,101377.03
2018-09-11T20:43:12.783Z,101364.12
2018-09-11T20:45:41.774Z,101364.66
2018-09-11T20:48:10.749Z,101359.03
2018-09-11T20:50:39.750Z,101368.95
2018-09-11T20:53:08.779Z,101371.31
2018-09-11T20:55:37.757Z,101358.14
2018-09-11T20:58:06.746Z,101374.02
2018-09-11T21:00:36.091Z,101371.78
2018-09-11T21:03:05.078Z,101374.68
2018-09-11T21:05:34.044Z,101374.11
2018-09-11T21:08:03.037Z,101379.83
2018-09-11T21:10:32.014Z,101384.77
2018-09-11T21:13:01.079Z,101383.35
2018-09-11T21:15:30.057Z,101383.69
2018-09-11T21:17:58.993Z,101381.41
2018-09-11T21:20:28.014Z,101386.59
2018-09-11T21:22:57.025Z,101385.27
2018-09-11T21:25:25.987Z,101388.98
2018-09-11T21:27:54.886Z,101396.95
2018-09-11T21:30:23.909Z,101395.17
2018-09-11T21:32:53.017Z,101388.05
2018-09-11T21:35:22.032Z,101383.42
2018-09-11T21:37:51.309Z,101392.27
2018-09-11T21:40:20.364Z,101399.82
2018-09-11T21:42:49.360Z,101397.62
2018-09-11T21:45:18.340Z,101398.86
2018-09-11T21:47:47.377Z,101393.34
2018-09-11T21:50:16.483Z,101390.36
2018-09-11T21:52:45.455Z,101386.17
2018-09-11T21:55:14.462Z,101395.22
2018-09-11T21:57:43.534Z,101389.00
2018-09-11T22:00:13.382Z,101390.42
2018-09-11T22:02:42.395Z,101388.43
2018-09-11T22:05:11.622Z,101383.54
2018-09-11T22:07:40.604Z,101374.34
2018-09-11T22:10:10.873Z,101376.28
2018-09-11T22:12:40.135Z,101373.38
2018-09-11T22:15:10.403Z,101368.11
2018-09-11T22:17:39.620Z,101370.98
2018-09-11T22:20:09.005Z,101368.07
2018-09-11T22:22:38.055Z,101369.56
2018-09-11T22:27:56.243Z,101369.75
2018-09-11T22:30:30.159Z,101375.90
2018-09-11T22:33:00.028Z,101378.27
2018-09-11T22:35:29.004Z,101378.23
2018-09-11T22:37:59.067Z,101377.77
2018-09-11T22:40:28.085Z,101380.87
2018-09-11T22:42:57.102Z,101373.20
2018-09-11T22:45:26.085Z,101371.55
2018-09-11T22:47:55.216Z,101377.62
2018-09-11T22:50:24.210Z,101373.54
2018-09-11T22:52:53.612Z,101370.41
2018-09-11T22:55:22.599Z,101367.05
2018-09-11T22:57:51.680Z,101363.38
2018-09-11T23:00:20.693Z,101360.18
2018-09-11T23:02:49.715Z,101358.28
2018-09-11T23:05:18.734Z,101363.09
2018-09-11T23:07:47.693Z,101359.85
2018-09-11T23:10:16.667Z,101351.67
2018-09-11T23:12:45.733Z,101353.63
2018-09-11T23:15:14.716Z,101355.52
2018-09-11T23:17:43.668Z,101344.33
2018-09-11T23:20:12.696Z,101341.87
2018-09-11T23:22:41.673Z,101341.91
2018-09-11T23:25:10.618Z,101332.88
2018-09-11T23:27:40.216Z,101332.13
2018-09-11T23:30:09.150Z,101335.30
2018-09-11T23:32:38.071Z,101338.70
2018-09-11T23:35:07.058Z,101332.78
2018-09-11T23:37:36.156Z,101337.30
2018-09-11T23:40:05.383Z,101334.23
2018-09-11T23:42:34.390Z,101335.19
2018-09-11T23:45:03.312Z,101330.37
2018-09-11T23:47:32.294Z,101331.41
2018-09-11T23:50:01.283Z,101323.69
2018-09-11T23:52:30.274Z,101324.36
2018-09-11T23:54:59.298Z,101318.41
2018-09-11T23:57:28.226Z,101325.29
2018-09-11T23:59:57.493Z,101322.20
